Time;durP1;ratioP1;P1;durP2;ratioP2;P2;SDS_P1;SDS_P2;PMS_P1;PMS_P2;Temp;Humidity;BMP_temperature;BMP_pressure;BME280_temperature;BME280_humidity;BME280_pressure;Samples;Min_cycle;Max_cycle;Signal;HPM_P1;HPM_P2
2022/08/05 00:00:20;;;;;;;5.67;3.10;;;24.30;98.00;;;;;;5033632;28;20969;-72
2022/08/05 00:02:48;;;;;;;5.87;3.37;;;24.30;98.00;;;;;;5033363;28;20466;-72
2022/08/05 00:05:16;;;;;;;5.70;3.03;;;24.40;98.00;;;;;;5033590;28;20449;-72
2022/08/05 00:07:43;;;;;;;3.93;3.00;;;24.50;98.00;;;;;;5033290;28;20451;-71
2022/08/05 00:10:10;;;;;;;3.47;2.57;;;24.50;98.00;;;;;;5015786;28;20474;-72
2022/08/05 00:12:39;;;;;;;4.80;3.10;;;24.30;98.00;;;;;;5033039;28;20977;-72
2022/08/05 00:15:07;;;;;;;4.07;2.93;;;24.20;98.00;;;;;;5033053;28;20524;-72
2022/08/05 00:17:34;;;;;;;5.03;2.80;;;24.10;98.00;;;;;;5033069;28;20450;-72
2022/08/05 00:20:01;;;;;;;6.63;3.00;;;24.10;98.00;;;;;;5033111;28;20717;-72
2022/08/05 00:22:28;;;;;;;9.93;3.53;;;24.00;98.00;;;;;;5033125;28;20819;-72
2022/08/05 00:24:56;;;;;;;3.90;3.00;;;24.10;98.00;;;;;;5032980;28;20458;-72
2022/08/05 00:27:23;;;;;;;3.70;2.60;;;24.20;98.00;;;;;;5032971;28;20454;-71
2022/08/05 00:29:51;;;;;;;4.40;3.20;;;24.40;98.00;;;;;;5032852;28;20455;-71
2022/08/05 00:32:18;;;;;;;4.80;3.10;;;24.20;98.00;;;;;;5032623;28;20478;-71
2022/08/05 00:34:46;;;;;;;5.07;3.20;;;24.10;98.00;;;;;;5033115;28;20466;-71
2022/08/05 00:37:13;;;;;;;4.90;3.03;;;24.00;98.00;;;;;;5032938;28;20470;-71
2022/08/05 00:39:41;;;;;;;6.90;3.70;;;24.10;98.00;;;;;;5033079;28;20486;-72
2022/08/05 00:42:08;;;;;;;5.33;3.60;;;24.10;98.00;;;;;;5032271;28;20814;-72
2022/08/05 00:44:35;;;;;;;3.77;3.20;;;24.00;98.00;;;;;;5032561;28;20486;-72
2022/08/05 00:47:04;;;;;;;3.83;2.73;;;23.80;98.00;;;;;;5032614;28;20458;-72
2022/08/05 00:49:31;;;;;;;4.10;3.00;;;23.80;98.00;;;;;;5032507;28;20454;-72
2022/08/05 00:51:58;;;;;;;6.70;3.03;;;23.80;98.00;;;;;;5032651;28;20459;-71
2022/08/05 00:54:26;;;;;;;4.60;3.20;;;23.90;98.00;;;;;;5032621;28;20464;-71
2022/08/05 00:56:53;;;;;;;4.33;3.00;;;23.90;98.00;;;;;;5032558;28;20454;-71
2022/08/05 00:59:21;;;;;;;4.83;3.20;;;23.90;98.00;;;;;;5032664;28;20439;-71
2022/08/05 01:01:48;;;;;;;4.77;3.20;;;23.70;98.00;;;;;;5032214;28;20569;-72
2022/08/05 01:04:19;;;;;;;5.10;3.20;;;23.70;98.00;;;;;;5032299;28;20470;-71
2022/08/05 01:06:47;;;;;;;5.17;3.20;;;23.70;98.00;;;;;;5032141;28;20470;-71
2022/08/05 01:09:16;;;;;;;4.20;2.93;;;23.60;98.00;;;;;;5032148;28;20462;-72
2022/08/05 01:11:47;;;;;;;5.43;3.00;;;23.70;98.00;;;;;;5032240;28;20581;-71
2022/08/05 01:14:33;;;;;;;5.50;3.03;;;23.70;98.00;;;;;;5032123;28;20482;-71
2022/08/05 01:17:05;;;;;;;5.27;2.90;;;23.80;98.00;;;;;;5032021;28;20516;-71
2022/08/05 01:19:40;;;;;;;3.83;2.80;;;23.70;98.00;;;;;;5032293;28;20826;-71
2022/08/05 01:22:39;;;;;;;5.63;3.30;;;23.60;98.00;;;;;;5031915;28;20461;-71
2022/08/05 01:25:32;;;;;;;5.20;3.33;;;23.60;98.00;;;;;;5026647;28;20965;-71
2022/08/05 01:28:17;;;;;;;5.20;2.97;;;23.70;98.00;;;;;;5031954;28;20459;-71
2022/08/05 01:30:52;;;;;;;5.80;2.97;;;23.70;98.00;;;;;;5031834;28;20458;-71
2022/08/05 01:33:24;;;;;;;4.13;2.90;;;23.60;98.00;;;;;;5031678;28;21035;-71
2022/08/05 01:35:54;;;;;;;5.00;3.47;;;23.70;98.00;;;;;;5031969;28;20459;-71
2022/08/05 01:38:25;;;;;;;4.47;2.97;;;23.80;98.00;;;;;;5031676;28;20466;-71
2022/08/05 01:40:54;;;;;;;6.30;3.20;;;23.70;98.00;;;;;;5031783;28;20465;-71
2022/08/05 01:43:28;;;;;;;8.30;3.17;;;23.70;98.00;;;;;;5031853;28;20465;-71
2022/08/05 01:45:56;;;;;;;4.90;3.20;;;23.60;98.00;;;;;;5013955;28;20478;-71
2022/08/05 01:48:24;;;;;;;4.40;3.17;;;23.40;98.00;;;;;;5031404;28;20949;-71
2022/08/05 01:50:53;;;;;;;4.50;3.10;;;23.20;98.00;;;;;;5031364;28;20466;-71
2022/08/05 01:53:21;;;;;;;4.97;3.03;;;23.20;98.00;;;;;;5030490;28;20513;-71
2022/08/05 01:55:51;;;;;;;4.77;3.17;;;23.10;98.00;;;;;;5031399;28;20451;-71
2022/08/05 01:58:21;;;;;;;5.80;3.20;;;23.20;98.00;;;;;;5031300;28;20490;-71
2022/08/05 02:00:51;;;;;;;4.53;3.20;;;23.10;98.00;;;;;;5031607;28;20462;-72
2022/08/05 02:03:23;;;;;;;4.67;3.30;;;23.10;98.00;;;;;;5031134;28;20470;-71
2022/08/05 02:05:53;;;;;;;4.40;3.03;;;23.00;98.00;;;;;;5031122;28;20451;-71
2022/08/05 02:08:20;;;;;;;4.80;3.30;;;22.90;98.00;;;;;;5031193;28;20512;-71
2022/08/05 02:10:51;;;;;;;4.60;2.97;;;23.00;98.00;;;;;;5031126;28;20981;-71
2022/08/05 02:13:26;;;;;;;7.77;3.73;;;22.90;98.00;;;;;;5031159;28;20490;-71
2022/08/05 02:16:00;;;;;;;4.20;3.00;;;22.90;98.00;;;;;;5031545;28;21209;-71
2022/08/05 02:18:36;;;;;;;5.07;3.00;;;22.90;98.00;;;;;;5031225;28;20461;-71
2022/08/05 02:21:07;;;;;;;6.03;3.10;;;22.80;98.00;;;;;;5031335;28;20851;-71
2022/08/05 02:23:38;;;;;;;7.73;3.27;;;22.70;98.00;;;;;;5031060;28;20458;-71
2022/08/05 02:26:08;;;;;;;5.50;3.00;;;22.70;98.00;;;;;;5030891;28;20980;-71
2022/08/05 02:28:40;;;;;;;5.67;3.67;;;22.80;98.00;;;;;;5031073;28;20458;-71
2022/08/05 02:31:11;;;;;;;5.87;3.60;;;22.70;98.00;;;;;;5014091;28;20454;-71
2022/08/05 02:33:43;;;;;;;5.90;3.20;;;22.70;98.00;;;;;;5031010;28;20549;-71
2022/08/05 02:36:14;;;;;;;4.33;3.10;;;22.90;98.00;;;;;;5030979;28;20505;-71
2022/08/05 02:38:45;;;;;;;6.23;3.40;;;23.20;98.00;;;;;;5031159;28;20534;-71
2022/08/05 02:41:13;;;;;;;3.80;2.83;;;23.20;98.00;;;;;;5014448;28;20462;-71
2022/08/05 02:43:42;;;;;;;3.13;2.57;;;23.20;98.00;;;;;;5013671;28;20462;-71
2022/08/05 02:46:13;;;;;;;5.03;2.97;;;23.30;98.00;;;;;;5030856;28;20473;-71
2022/08/05 02:48:41;;;;;;;5.17;3.53;;;23.40;98.00;;;;;;5030571;28;20463;-71
2022/08/05 02:51:09;;;;;;;5.37;2.80;;;23.40;98.00;;;;;;5030809;28;20828;-71
2022/08/05 02:53:39;;;;;;;3.67;3.03;;;23.40;98.00;;;;;;5013280;28;20545;-71
2022/08/05 02:56:08;;;;;;;4.37;3.10;;;23.50;98.00;;;;;;5030934;28;20493;-71
2022/08/05 02:58:37;;;;;;;4.57;2.70;;;23.60;98.00;;;;;;5030923;28;20988;-71
2022/08/05 03:01:05;;;;;;;3.50;2.57;;;23.60;98.00;;;;;;5031020;28;20455;-71
2022/08/05 03:03:34;;;;;;;3.73;2.80;;;23.60;98.00;;;;;;5030789;28;20475;-71
2022/08/05 03:06:02;;;;;;;4.60;2.90;;;23.70;98.00;;;;;;5016947;28;20446;-71
2022/08/05 03:08:30;;;;;;;4.60;2.90;;;23.80;98.00;;;;;;5034456;28;20461;-71
2022/08/05 03:10:58;;;;;;;3.47;2.27;;;23.80;98.00;;;;;;5034370;28;20803;-71
2022/08/05 03:13:25;;;;;;;3.40;2.80;;;23.80;98.00;;;;;;5034575;28;20486;-71
2022/08/05 03:15:52;;;;;;;3.47;2.60;;;23.80;98.00;;;;;;5034216;28;20919;-71
2022/08/05 03:18:19;;;;;;;3.87;2.63;;;23.80;98.00;;;;;;5034270;28;20478;-71
2022/08/05 03:20:47;;;;;;;3.43;2.50;;;23.80;98.00;;;;;;5034179;28;20458;-71
2022/08/05 03:23:15;;;;;;;3.43;2.60;;;23.80;98.00;;;;;;5034208;28;20462;-71
2022/08/05 03:25:42;;;;;;;4.13;2.90;;;23.80;98.00;;;;;;5034131;28;20446;-71
2022/08/05 03:28:10;;;;;;;5.80;2.93;;;23.80;98.00;;;;;;5016373;28;20470;-71
2022/08/05 03:30:40;;;;;;;7.13;3.20;;;23.70;98.00;;;;;;5034272;28;20462;-71
2022/08/05 03:33:07;;;;;;;3.40;2.83;;;23.60;98.00;;;;;;5034089;28;20489;-71
2022/08/05 03:35:35;;;;;;;6.73;3.30;;;23.50;98.00;;;;;;5034198;28;20455;-71
2022/08/05 03:38:03;;;;;;;4.67;2.93;;;23.50;98.00;;;;;;5034126;28;20455;-71
2022/08/05 03:40:31;;;;;;;5.30;2.93;;;23.40;98.00;;;;;;5034097;28;20470;-72
2022/08/05 03:42:58;;;;;;;5.00;3.10;;;23.40;98.00;;;;;;5033950;28;20482;-71
2022/08/05 03:45:25;;;;;;;3.50;2.50;;;23.30;98.00;;;;;;5033857;28;20470;-72
2022/08/05 03:47:52;;;;;;;4.20;2.87;;;23.40;98.00;;;;;;5033646;28;20465;-71
2022/08/05 03:50:20;;;;;;;6.87;2.60;;;23.60;98.00;;;;;;5034020;28;20457;-71
2022/08/05 03:52:55;;;;;;;4.73;2.70;;;23.40;98.00;;;;;;5033587;28;20459;-71
2022/08/05 03:55:27;;;;;;;5.63;3.03;;;23.30;98.00;;;;;;5016006;28;20462;-71
2022/08/05 03:57:56;;;;;;;3.13;2.60;;;23.20;98.00;;;;;;5033557;28;20455;-71
2022/08/05 04:00:28;;;;;;;3.70;2.33;;;23.30;98.00;;;;;;5033731;28;20465;-71
2022/08/05 04:02:57;;;;;;;4.07;2.80;;;23.30;98.00;;;;;;5033353;28;20462;-71
2022/08/05 04:05:27;;;;;;;3.87;2.53;;;23.20;98.00;;;;;;5033378;28;20462;-71
2022/08/05 04:07:54;;;;;;;6.23;3.20;;;23.20;98.00;;;;;;5033248;28;20459;-71
2022/08/05 04:10:23;;;;;;;4.10;2.77;;;23.20;98.00;;;;;;5033322;28;20447;-71
2022/08/05 04:12:52;;;;;;;7.57;2.60;;;23.20;98.00;;;;;;5033111;28;20467;-71
2022/08/05 04:15:20;;;;;;;6.93;2.90;;;23.20;98.00;;;;;;5032371;28;20887;-71
2022/08/05 04:17:47;;;;;;;4.00;2.80;;;23.30;98.00;;;;;;5032650;28;20996;-71
2022/08/05 04:20:19;;;;;;;4.67;3.20;;;23.30;98.00;;;;;;5033217;28;20458;-71
2022/08/05 04:22:46;;;;;;;4.03;2.90;;;23.20;98.00;;;;;;5033179;28;20550;-71
2022/08/05 04:25:14;;;;;;;3.83;2.77;;;23.20;98.00;;;;;;5033051;28;20465;-71
2022/08/05 04:27:41;;;;;;;5.30;2.80;;;23.20;98.00;;;;;;5032985;28;20447;-71
2022/08/05 04:30:11;;;;;;;4.10;2.93;;;23.20;98.00;;;;;;5032947;28;20979;-71
2022/08/05 04:32:38;;;;;;;3.70;2.73;;;23.30;98.00;;;;;;5032865;28;20455;-71
2022/08/05 04:35:07;;;;;;;5.60;3.33;;;23.30;98.00;;;;;;5032827;28;20763;-71
2022/08/05 04:37:34;;;;;;;3.97;2.50;;;23.30;98.00;;;;;;5032810;28;20830;-71
2022/08/05 04:40:01;;;;;;;3.10;2.60;;;23.40;98.00;;;;;;5033308;28;20466;-71
2022/08/05 04:42:28;;;;;;;4.43;2.97;;;23.60;98.00;;;;;;5032820;28;20465;-71
2022/08/05 04:44:55;;;;;;;4.50;2.53;;;23.60;98.00;;;;;;5032847;28;20458;-71
2022/08/05 04:47:24;;;;;;;5.03;2.90;;;23.50;98.00;;;;;;5032469;28;20478;-71
2022/08/05 04:49:51;;;;;;;5.10;3.30;;;23.30;98.00;;;;;;5032660;28;20458;-71
2022/08/05 04:52:18;;;;;;;4.47;2.80;;;23.50;98.00;;;;;;5032324;28;20454;-71
2022/08/05 04:54:46;;;;;;;4.73;3.13;;;23.60;98.00;;;;;;5032597;28;20857;-71
2022/08/05 04:57:13;;;;;;;4.07;2.90;;;23.50;98.00;;;;;;5032526;28;20451;-71
2022/08/05 04:59:40;;;;;;;5.40;3.13;;;23.60;98.00;;;;;;5032311;28;20455;-71
2022/08/05 05:02:08;;;;;;;5.40;3.10;;;23.60;98.00;;;;;;5032231;28;20470;-71
2022/08/05 05:04:36;;;;;;;7.90;3.73;;;23.60;98.00;;;;;;5032137;28;20454;-71
2022/08/05 05:07:03;;;;;;;4.90;3.10;;;23.60;98.00;;;;;;5032127;28;20473;-71
2022/08/05 05:09:30;;;;;;;3.73;2.77;;;23.50;98.00;;;;;;5032232;28;20458;-71
2022/08/05 05:11:57;;;;;;;4.73;3.17;;;23.40;98.00;;;;;;5032153;28;20454;-71
2022/08/05 05:14:25;;;;;;;3.43;2.63;;;23.40;98.00;;;;;;5030112;28;20482;-71
2022/08/05 05:16:52;;;;;;;5.40;3.23;;;23.40;98.00;;;;;;5031862;28;20453;-71
2022/08/05 05:19:19;;;;;;;5.53;3.00;;;23.40;98.00;;;;;;5031947;28;20447;-71
2022/08/05 05:21:47;;;;;;;5.87;3.60;;;23.30;98.00;;;;;;5031804;28;20466;-71
2022/08/05 05:24:15;;;;;;;4.13;3.00;;;23.20;98.00;;;;;;5032013;28;20455;-71
2022/08/05 05:26:43;;;;;;;5.53;2.97;;;23.20;98.00;;;;;;5031757;28;20469;-71
2022/08/05 05:29:10;;;;;;;6.37;3.37;;;23.20;98.00;;;;;;5031845;28;20465;-71
2022/08/05 05:31:37;;;;;;;4.80;2.87;;;23.40;98.00;;;;;;5032025;28;20458;-71
2022/08/05 05:34:04;;;;;;;5.43;3.47;;;23.60;98.00;;;;;;5031779;28;20489;-71
2022/08/05 05:36:32;;;;;;;4.10;2.70;;;23.50;98.00;;;;;;5031674;28;20992;-71
2022/08/05 05:39:00;;;;;;;4.20;3.23;;;23.60;98.00;;;;;;5031865;28;20447;-71
2022/08/05 05:41:29;;;;;;;4.07;3.03;;;23.50;98.00;;;;;;5031771;28;20454;-71
2022/08/05 05:43:56;;;;;;;5.07;2.97;;;23.50;98.00;;;;;;5031591;28;20953;-71
2022/08/05 05:46:23;;;;;;;6.10;3.00;;;23.40;98.00;;;;;;5031538;28;20465;-71
2022/08/05 05:48:50;;;;;;;4.73;3.10;;;23.60;98.00;;;;;;5031001;28;20835;-71
2022/08/05 05:51:22;;;;;;;4.77;3.20;;;23.60;98.00;;;;;;5031480;28;20458;-71
2022/08/05 05:53:49;;;;;;;4.27;2.83;;;23.70;98.00;;;;;;5014679;28;20475;-70
2022/08/05 05:56:19;;;;;;;4.47;3.03;;;23.80;98.00;;;;;;5032289;28;20466;-70
2022/08/05 05:58:46;;;;;;;6.97;3.53;;;23.90;98.00;;;;;;5032102;28;20455;-69
2022/08/05 06:01:14;;;;;;;5.10;2.90;;;23.90;98.00;;;;;;5032296;28;20459;-68
2022/08/05 06:03:41;;;;;;;3.67;2.73;;;24.00;98.00;;;;;;5031930;28;20447;-65
2022/08/05 06:06:08;;;;;;;5.13;3.10;;;24.10;98.00;;;;;;5032045;28;20478;-66
2022/08/05 06:08:36;;;;;;;4.00;2.67;;;24.30;98.00;;;;;;5032017;28;20505;-66
2022/08/05 06:11:03;;;;;;;7.23;3.33;;;24.40;98.00;;;;;;5032236;28;20458;-65
2022/08/05 06:13:32;;;;;;;4.67;3.30;;;24.60;98.00;;;;;;5031917;28;20458;-66
2022/08/05 06:15:59;;;;;;;4.10;2.97;;;24.70;98.00;;;;;;5032110;28;20485;-65
2022/08/05 06:18:26;;;;;;;6.37;2.97;;;25.00;98.00;;;;;;5014550;28;20451;-71
2022/08/05 06:20:53;;;;;;;4.37;3.00;;;25.20;98.00;;;;;;5031797;28;20458;-71
2022/08/05 06:23:20;;;;;;;6.20;3.60;;;25.40;98.00;;;;;;5031904;28;20831;-71
2022/08/05 06:25:50;;;;;;;4.73;3.20;;;25.60;98.00;;;;;;5031730;28;20541;-71
2022/08/05 06:28:17;;;;;;;5.47;3.07;;;25.80;98.00;;;;;;5032073;28;20451;-71
2022/08/05 06:30:46;;;;;;;4.00;2.83;;;26.00;98.00;;;;;;5031815;28;20455;-72
2022/08/05 06:33:13;;;;;;;3.97;2.83;;;26.10;98.00;;;;;;5031871;28;20453;-72
2022/08/05 06:35:40;;;;;;;4.23;2.87;;;26.30;97.80;;;;;;5031394;28;20556;-72
2022/08/05 06:38:08;;;;;;;4.77;3.10;;;26.40;97.40;;;;;;5031692;28;20447;-72
2022/08/05 06:40:35;;;;;;;4.60;3.00;;;26.50;96.70;;;;;;5035386;28;20462;-72
2022/08/05 06:43:02;;;;;;;3.50;2.97;;;26.60;95.70;;;;;;5035660;28;20462;-71
2022/08/05 06:45:29;;;;;;;4.40;3.33;;;26.50;96.10;;;;;;5035869;28;20792;-71
2022/08/05 06:47:58;;;;;;;4.40;2.70;;;26.50;96.20;;;;;;5035413;28;20458;-72
2022/08/05 06:50:25;;;;;;;4.80;3.10;;;26.60;95.90;;;;;;5035582;28;20880;-71
2022/08/05 06:52:53;;;;;;;4.67;3.00;;;26.60;94.90;;;;;;5035571;28;20449;-71
2022/08/05 06:55:21;;;;;;;4.10;2.77;;;26.60;94.90;;;;;;5035349;28;20984;-72
2022/08/05 06:57:48;;;;;;;4.63;2.73;;;26.60;95.80;;;;;;5032526;28;20454;-72
2022/08/05 07:00:17;;;;;;;6.13;3.37;;;26.80;95.00;;;;;;5032913;28;20465;-72
2022/08/05 07:02:45;;;;;;;3.33;2.30;;;26.90;94.90;;;;;;5033615;28;20953;-71
2022/08/05 07:05:14;;;;;;;5.60;3.07;;;26.90;95.00;;;;;;5034929;28;20458;-71
2022/08/05 07:07:42;;;;;;;3.90;2.70;;;27.00;94.60;;;;;;5034376;28;20507;-72
2022/08/05 07:10:14;;;;;;;4.40;2.83;;;27.10;94.10;;;;;;5034562;28;20916;-71
2022/08/05 07:18:09;;;;;;;3.13;2.70;;;27.30;93.00;;;;;;5034339;28;20528;-70
2022/08/05 07:20:38;;;;;;;4.30;2.80;;;27.30;92.90;;;;;;5034143;28;20832;-70
2022/08/05 07:23:05;;;;;;;4.10;2.97;;;27.30;92.30;;;;;;5034144;28;20469;-70
2022/08/05 07:25:32;;;;;;;3.90;2.53;;;27.30;92.50;;;;;;5034312;28;20458;-71
2022/08/05 07:27:59;;;;;;;3.50;2.43;;;27.30;92.80;;;;;;5034095;28;20455;-69
2022/08/05 07:30:26;;;;;;;3.60;2.53;;;27.20;92.30;;;;;;5034106;28;20454;-70
2022/08/05 07:32:54;;;;;;;3.87;2.67;;;27.30;92.50;;;;;;5034014;28;20458;-71
2022/08/05 07:35:21;;;;;;;3.70;2.80;;;27.30;92.10;;;;;;5034363;28;20832;-70
2022/08/05 07:37:51;;;;;;;3.20;2.60;;;27.40;91.90;;;;;;5034010;28;20465;-71
2022/08/05 07:40:18;;;;;;;3.40;2.47;;;27.40;91.60;;;;;;5034273;28;20461;-70
2022/08/05 07:42:45;;;;;;;5.10;2.57;;;27.50;90.90;;;;;;5033936;28;20463;-71
2022/08/05 07:45:12;;;;;;;3.07;2.27;;;27.50;91.00;;;;;;5034132;28;20461;-71
2022/08/05 07:47:40;;;;;;;3.93;2.70;;;27.60;89.40;;;;;;5034137;28;20497;-70
2022/08/05 07:50:08;;;;;;;2.87;2.30;;;27.60;90.00;;;;;;5033937;28;20462;-71
2022/08/05 07:52:39;;;;;;;6.20;2.60;;;27.60;89.70;;;;;;5033759;28;20454;-69
2022/08/05 07:55:09;;;;;;;3.83;2.83;;;27.60;89.50;;;;;;5033706;28;20544;-71
2022/08/05 07:57:36;;;;;;;4.43;2.53;;;27.70;89.70;;;;;;5016362;28;20458;-70
2022/08/05 08:00:05;;;;;;;3.20;2.20;;;27.80;89.00;;;;;;5033796;28;20987;-70
2022/08/05 08:02:32;;;;;;;3.50;2.17;;;27.80;88.70;;;;;;5033510;28;20466;-71
2022/08/05 08:05:01;;;;;;;2.53;2.03;;;27.90;87.80;;;;;;5033453;28;20485;-71
2022/08/05 08:07:28;;;;;;;4.53;2.10;;;27.90;87.40;;;;;;5033539;28;20463;-70
2022/08/05 08:09:55;;;;;;;4.20;2.57;;;27.90;87.10;;;;;;5033447;28;20454;-71
2022/08/05 08:12:24;;;;;;;2.43;2.20;;;28.00;86.90;;;;;;5033285;28;20857;-70
2022/08/05 08:14:51;;;;;;;6.03;2.40;;;28.10;87.10;;;;;;5033536;28;20479;-70
2022/08/05 08:17:23;;;;;;;2.30;2.07;;;28.10;87.50;;;;;;5033316;28;20455;-71
2022/08/05 08:19:50;;;;;;;4.00;2.30;;;28.30;86.70;;;;;;5033230;28;20461;-71
2022/08/05 08:22:17;;;;;;;3.57;2.50;;;28.30;84.30;;;;;;5033133;28;20462;-71
2022/08/05 08:24:44;;;;;;;2.90;2.07;;;28.30;85.10;;;;;;5032973;28;20466;-70
2022/08/05 08:27:11;;;;;;;2.87;2.13;;;28.40;84.60;;;;;;5033075;28;20465;-70
2022/08/05 08:29:40;;;;;;;3.90;2.40;;;28.60;83.70;;;;;;5033071;28;20459;-70
2022/08/05 08:32:07;;;;;;;2.67;2.20;;;28.70;84.50;;;;;;5033093;28;20451;-70
2022/08/05 08:34:36;;;;;;;3.20;2.30;;;28.90;83.30;;;;;;5032891;28;20459;-71
2022/08/05 08:37:03;;;;;;;3.33;2.27;;;29.00;83.60;;;;;;5032806;28;20451;-70
2022/08/05 08:39:30;;;;;;;4.60;2.47;;;29.10;82.40;;;;;;5032847;28;20454;-71
2022/08/05 08:41:59;;;;;;;3.23;2.00;;;29.20;82.70;;;;;;5032987;28;20741;-70
2022/08/05 08:44:29;;;;;;;3.20;2.17;;;29.20;82.90;;;;;;5033130;28;20501;-71
2022/08/05 08:46:57;;;;;;;3.60;2.40;;;29.20;82.70;;;;;;5032646;28;20847;-71
2022/08/05 08:49:25;;;;;;;3.00;2.40;;;29.30;83.80;;;;;;5032754;28;20486;-71
2022/08/05 08:51:59;;;;;;;2.60;2.17;;;29.40;83.30;;;;;;5032673;28;20462;-71
2022/08/05 08:54:26;;;;;;;3.03;2.30;;;29.50;82.30;;;;;;5032628;28;20552;-70
2022/08/05 08:59:42;;;;;;;2.60;2.07;;;29.60;81.70;;;;;;5017422;28;20446;-71
2022/08/05 09:02:11;;;;;;;2.53;2.13;;;29.60;81.40;;;;;;5031708;28;20465;-70
2022/08/05 09:04:38;;;;;;;3.47;2.20;;;29.70;80.30;;;;;;5032439;28;20458;-70
2022/08/05 09:07:06;;;;;;;3.20;2.53;;;29.80;80.50;;;;;;5032207;28;20481;-70
2022/08/05 09:09:35;;;;;;;2.77;2.27;;;29.90;80.40;;;;;;5032488;28;20457;-70
2022/08/05 09:12:02;;;;;;;2.60;2.27;;;30.00;79.80;;;;;;5032099;28;20481;-71
2022/08/05 09:14:32;;;;;;;3.80;2.43;;;30.10;80.30;;;;;;5032082;28;20462;-70
2022/08/05 09:17:00;;;;;;;2.63;2.23;;;30.20;79.00;;;;;;5031637;28;20457;-71
2022/08/05 09:19:28;;;;;;;2.87;2.30;;;30.40;78.40;;;;;;5031785;28;20450;-71
2022/08/05 09:21:56;;;;;;;3.10;2.17;;;30.40;77.50;;;;;;5031946;28;20537;-73
2022/08/05 09:24:23;;;;;;;2.77;2.13;;;30.20;78.90;;;;;;5032202;28;20457;-71
2022/08/05 09:26:51;;;;;;;3.10;2.10;;;30.20;78.60;;;;;;5046372;28;20449;-66
2022/08/05 09:29:19;;;;;;;4.47;2.40;;;30.20;77.20;;;;;;5041243;28;20469;-68
2022/08/05 09:32:02;;;;;;;2.73;2.10;;;30.30;76.60;;;;;;5047946;28;20974;-71
2022/08/05 09:34:49;;;;;;;3.67;2.13;;;30.40;76.00;;;;;;5048267;28;20450;-71
2022/08/05 09:37:22;;;;;;;3.70;2.30;;;30.40;77.10;;;;;;5045527;28;20462;-70
2022/08/05 09:39:49;;;;;;;2.97;2.10;;;30.40;76.90;;;;;;5033808;28;20824;-68
2022/08/05 09:42:18;;;;;;;1.90;1.70;;;30.30;77.10;;;;;;5034130;28;20457;-66
2022/08/05 09:44:47;;;;;;;2.70;2.17;;;30.40;77.40;;;;;;5030482;28;20878;-67
2022/08/05 09:47:16;;;;;;;2.33;1.90;;;30.50;76.30;;;;;;5031224;28;20973;-67
2022/08/05 09:49:46;;;;;;;2.50;2.00;;;30.40;76.20;;;;;;5031640;28;20455;-66
2022/08/05 09:52:25;;;;;;;3.20;2.33;;;30.30;77.20;;;;;;5031650;28;20459;-67
2022/08/05 09:54:59;;;;;;;3.03;2.00;;;30.20;77.70;;;;;;5030136;28;20454;-67
2022/08/05 09:57:40;;;;;;;2.23;1.90;;;30.30;76.90;;;;;;5030152;28;20455;-67
2022/08/05 10:00:12;;;;;;;2.70;2.10;;;30.60;76.00;;;;;;5031322;28;20460;-67
2022/08/05 10:02:40;;;;;;;2.20;2.00;;;30.80;76.90;;;;;;5031512;28;20459;-67
2022/08/05 10:05:11;;;;;;;3.00;2.13;;;31.00;75.40;;;;;;5031182;28;20469;-67
2022/08/05 10:07:46;;;;;;;3.43;2.17;;;31.00;74.40;;;;;;5031307;28;20467;-67
2022/08/05 10:10:16;;;;;;;2.30;2.10;;;31.20;74.00;;;;;;5031110;28;20461;-67
2022/08/05 10:12:45;;;;;;;2.50;2.00;;;31.30;73.50;;;;;;5029732;28;20462;-69
2022/08/05 10:15:17;;;;;;;2.70;2.10;;;31.40;73.30;;;;;;5030498;28;20505;-71
2022/08/05 10:18:02;;;;;;;2.50;2.17;;;31.40;73.20;;;;;;5031109;28;20463;-72
2022/08/05 10:20:32;;;;;;;2.87;2.10;;;31.30;73.90;;;;;;5031184;28;20482;-73
2022/08/05 10:23:00;;;;;;;3.20;2.27;;;31.20;74.50;;;;;;5031029;28;20517;-72
2022/08/05 10:25:27;;;;;;;2.37;2.17;;;31.10;73.60;;;;;;5030948;28;20836;-65
2022/08/05 10:27:54;;;;;;;2.53;1.97;;;31.00;75.00;;;;;;5030912;28;20453;-65
2022/08/05 10:30:22;;;;;;;3.43;2.30;;;31.20;74.30;;;;;;5031227;28;20463;-65
2022/08/05 10:32:50;;;;;;;3.00;2.20;;;31.40;74.90;;;;;;5031041;28;20458;-63
2022/08/05 10:35:17;;;;;;;2.30;2.00;;;31.40;73.40;;;;;;5031126;28;20846;-64
2022/08/05 10:37:47;;;;;;;2.43;2.30;;;31.30;73.40;;;;;;5030900;28;20827;-63
2022/08/05 10:40:24;;;;;;;2.47;1.97;;;31.30;73.10;;;;;;5031028;28;20462;-64
2022/08/05 10:42:54;;;;;;;2.23;2.03;;;31.20;73.40;;;;;;5030137;28;20458;-64
2022/08/05 10:45:26;;;;;;;2.67;2.07;;;31.40;74.60;;;;;;5029897;28;20879;-64
2022/08/05 10:48:01;;;;;;;2.80;2.27;;;31.50;73.40;;;;;;5030971;28;20465;-65
2022/08/05 10:50:28;;;;;;;2.93;2.20;;;31.80;72.50;;;;;;5031045;28;20464;-63
2022/08/05 10:52:58;;;;;;;2.60;2.10;;;32.10;72.30;;;;;;5030764;28;20450;-63
2022/08/05 10:55:26;;;;;;;4.00;2.20;;;32.30;72.20;;;;;;5030733;28;20570;-65
2022/08/05 10:58:15;;;;;;;2.90;2.10;;;32.40;71.70;;;;;;5030643;28;20462;-65
2022/08/05 11:00:47;;;;;;;2.10;1.93;;;32.60;71.20;;;;;;5030795;28;20478;-67
2022/08/05 11:03:14;;;;;;;2.13;2.00;;;32.50;70.40;;;;;;5030676;28;20467;-67
2022/08/05 11:05:41;;;;;;;3.30;2.03;;;32.60;70.00;;;;;;5030833;28;20486;-68
2022/08/05 11:08:10;;;;;;;2.77;2.20;;;32.70;70.20;;;;;;5030599;28;20450;-67
2022/08/05 11:10:41;;;;;;;3.77;2.40;;;32.80;68.90;;;;;;5030835;28;20953;-64
2022/08/05 11:13:10;;;;;;;2.10;1.90;;;32.90;68.60;;;;;;5030693;28;20474;-69
2022/08/05 11:15:39;;;;;;;2.43;1.93;;;33.00;68.80;;;;;;5030548;28;20478;-70
2022/08/05 11:18:08;;;;;;;2.80;2.10;;;33.20;69.10;;;;;;5030644;28;20509;-71
2022/08/05 11:20:42;;;;;;;3.33;2.17;;;33.40;68.20;;;;;;5030783;28;20454;-72
2022/08/05 11:23:51;;;;;;;2.70;2.37;;;33.50;67.80;;;;;;5029438;28;20463;-72
2022/08/05 11:26:23;;;;;;;2.40;2.10;;;33.60;68.30;;;;;;5033155;28;20466;-70
2022/08/05 11:28:52;;;;;;;2.50;2.10;;;33.80;67.10;;;;;;5034099;28;20462;-70
2022/08/05 11:31:36;;;;;;;2.63;2.30;;;33.70;67.60;;;;;;5034461;28;20457;-71
2022/08/05 11:34:06;;;;;;;2.77;2.10;;;33.80;67.30;;;;;;5034023;28;20613;-70
2022/08/05 11:36:51;;;;;;;2.97;2.33;;;34.10;66.80;;;;;;5034044;28;20491;-71
2022/08/05 11:39:54;;;;;;;2.73;2.10;;;34.30;66.80;;;;;;5034123;28;20557;-72
2022/08/05 11:42:25;;;;;;;2.73;1.80;;;34.30;66.30;;;;;;5030355;28;20466;-69
2022/08/05 11:45:00;;;;;;;2.93;2.30;;;34.30;66.80;;;;;;5033928;28;20462;-72
2022/08/05 11:47:28;;;;;;;2.97;2.07;;;34.40;67.40;;;;;;5033745;28;20450;-73
2022/08/05 11:49:59;;;;;;;2.90;2.07;;;34.50;65.70;;;;;;5033719;28;20451;-71
2022/08/05 11:52:27;;;;;;;2.70;2.40;;;34.70;66.30;;;;;;5033762;28;20969;-72
2022/08/05 11:54:55;;;;;;;2.40;2.20;;;34.80;65.90;;;;;;5033636;28;20458;-72
2022/08/05 11:57:30;;;;;;;3.37;2.30;;;34.90;66.00;;;;;;5033323;28;20478;-71
2022/08/05 11:59:58;;;;;;;3.23;2.30;;;35.10;65.50;;;;;;5028521;28;20974;-71
2022/08/05 12:02:27;;;;;;;3.13;2.10;;;35.40;65.00;;;;;;5033273;28;20459;-71
2022/08/05 12:04:54;;;;;;;2.70;2.10;;;35.60;64.50;;;;;;5033548;28;20459;-71
2022/08/05 12:07:21;;;;;;;3.57;2.50;;;35.60;63.30;;;;;;5033658;28;21063;-71
2022/08/05 12:09:52;;;;;;;2.17;1.93;;;35.50;64.00;;;;;;5033493;28;20450;-71
2022/08/05 12:12:23;;;;;;;3.07;2.40;;;35.40;63.00;;;;;;5033638;28;20446;-71
2022/08/05 12:14:52;;;;;;;2.37;1.97;;;35.10;62.50;;;;;;5013882;28;20520;-71
2022/08/05 12:17:19;;;;;;;3.23;2.20;;;34.80;63.90;;;;;;5031643;28;20509;-72
2022/08/05 12:19:48;;;;;;;2.07;1.97;;;34.70;64.50;;;;;;5033333;28;20517;-71
2022/08/05 12:22:17;;;;;;;2.80;2.10;;;34.80;63.90;;;;;;5033321;28;20482;-71
2022/08/05 12:24:45;;;;;;;2.53;2.20;;;34.80;64.20;;;;;;5032891;28;20461;-72
2022/08/05 12:27:20;;;;;;;3.00;2.23;;;34.80;63.90;;;;;;5033547;28;20465;-71
2022/08/05 12:30:00;;;;;;;2.53;2.10;;;34.90;64.20;;;;;;5031909;28;20464;-71
2022/08/05 12:32:27;;;;;;;2.47;2.00;;;35.00;63.40;;;;;;5029771;28;20553;-66
2022/08/05 12:34:54;;;;;;;2.80;2.30;;;35.10;64.30;;;;;;5031030;28;20463;-66
2022/08/05 12:37:22;;;;;;;2.60;2.00;;;35.20;63.80;;;;;;5029831;28;20474;-67
2022/08/05 12:39:51;;;;;;;2.43;1.90;;;35.20;62.80;;;;;;5030476;28;20457;-70
2022/08/05 12:42:19;;;;;;;2.60;2.00;;;35.40;62.70;;;;;;5030484;28;20505;-69
2022/08/05 12:44:48;;;;;;;2.90;2.13;;;35.50;62.90;;;;;;5029585;28;20458;-68
2022/08/05 12:47:27;;;;;;;2.30;2.00;;;35.40;62.90;;;;;;5031085;28;20466;-70
2022/08/05 12:49:54;;;;;;;2.63;2.27;;;35.40;63.30;;;;;;5029514;28;20524;-71
2022/08/05 12:52:21;;;;;;;2.43;1.87;;;35.50;63.00;;;;;;5031118;28;20459;-70
2022/08/05 12:54:49;;;;;;;2.13;1.97;;;35.60;63.20;;;;;;5030742;28;20458;-68
2022/08/05 12:57:18;;;;;;;3.73;2.23;;;35.50;64.00;;;;;;5030471;28;20485;-67
2022/08/05 12:59:47;;;;;;;3.05;2.20;;;35.50;63.50;;;;;;5030624;28;20457;-67
2022/08/05 13:02:20;;;;;;;2.13;2.00;;;35.70;64.00;;;;;;5030982;28;20184;-67
2022/08/05 13:04:49;;;;;;;3.50;2.20;;;35.90;63.20;;;;;;5032245;28;20493;-68
2022/08/05 13:07:18;;;;;;;3.37;2.40;;;35.90;62.70;;;;;;5032391;28;20474;-68